Pagina principale
METAR-TAF:

METAR-TAF

Aeroporti :

Aeroporto Internazionale di Mostar

Mostar, Bosnia-Erzegovina

latitudine: 43-21N, longitudine: 017-48E, altezza: 108 m

Osservazione

Il bollettino è stato emesso 2 ore e 39 minuti fa, alle 13:30 UTC
Vento 16 kt da nord
Temperature 24°C
Umidità 34%
Pressione 1015 hPa
Visibilità 10 km o più
nessuna nube inferiore a 1500 m e nessun cumulonembo

METAR: LQMO 231330Z 35016KT CAVOK 24/07 Q1015

Ora: 18:09 (16:09 UTC)

Previsione

Il bollettino è stato emesso 5 ore e 9 minuti fa, alle 11:00 UTC
Previsione valida dal 23 alle 12 UTC al 24 alle 12 UTC
Vento 14 kt da nord
Visibilità 10 km o più
nessuna nube inferiore a 1500 m e nessun cumulonembo
Probabilità 40% :
Temporaneamente
dal 23 alle 18 UTC al 24 alle 07 UTC
Vento 20 kt da nord/nord-est con raffiche fino a 30 kt

TAF: LQMO 231100Z 2312/2412 35014KT CAVOK TX25/2313Z TN17/2403Z PROB40 TEMPO 2318/2407 02020G30KT

Osservazioni e previsioni meteorologiche di più di 4000 aeroporti (messaggi METAR e TAF).

Le stazioni disponibili sono rappresentate dai dischi gialli e rossi sulla carta.

Puntare il mouse per vedere il nome della stazione.

Clicca sopra per visualizzare le osservazioni e previsioni meteorologiche.

Per cambiare la mappa : fare clic sui pulsanti verdi con una croce nera per ingrandire, il pulsante verde con un trattino per diminuire, o sulla freccia verde per le mappe adiacenti.


METAR-TAF: